MSC Canberra — H8KT — position and weather

sailwx.info

Track history (hours):
 
Tides and Currents Weather Stations Pressure Air Temp Water Temp Dewpoint Dewpoint Depression Visibility Wind Speed Wind Dir Waves Ship Positions

MSC Canberra

Last reported at 2018-Jun-20 00:52 UTC. Time now 2018-Jun-21 10:10 UTC.
Position N 25°29' W 079°32'.

Length 220 m; beam 30.6 m; draft 12 m.

Type: Ship (hazmat cat A). MMSI: 357455000.

Date/timePositionNaut miles runAvg speedWind from/ knotsBaromVisibWave heightAir tempDewpointWater temp
2018-Jun-20 00:52N 25°29' W 079°32'615.2
2018-Jun-20 00:30N 25°34' W 079°30'715.0
2018-Jun-20 00:01N 25°41' W 079°29'815.0
2018-Jun-19 23:30N 25°49' W 079°27'  
2018-Jun-10 09:45N 46°50' W 071°09'8114.0
2018-Jun-10 03:56N 46°12' W 072°53'715.0
2018-Jun-10 03:28N 46°06' W 072°59'613.2
2018-Jun-10 03:00N 46°03' W 073°07'713.3
2018-Jun-10 02:30N 45°58' W 073°12'714.0
2018-Jun-10 02:00N 45°51' W 073°16'714.1
2018-Jun-10 01:31N 45°46' W 073°23'713.9
2018-Jun-10 01:00N 45°40' W 073°28'  
Track history (hours):
 
Tides and Currents Weather Stations Pressure Air Temp Water Temp Dewpoint Dewpoint Depression Visibility Wind Speed Wind Dir Waves Ship Positions

MSC Canberra

Last reported at 2018-Jun-20 00:52 UTC. Time now 2018-Jun-21 10:10 UTC.
Position N 25°29' W 079°32'.

Length 220 m; beam 30.6 m; draft 12 m.

Type: Ship (hazmat cat A). MMSI: 357455000.

Date/timePositionNaut miles runAvg speedWind from/ knotsBaromVisibWave heightAir tempDewpointWater temp
2018-Jun-20 00:52N 25°29' W 079°32'615.2
2018-Jun-20 00:30N 25°34' W 079°30'715.0
2018-Jun-20 00:01N 25°41' W 079°29'815.0
2018-Jun-19 23:30N 25°49' W 079°27'  
2018-Jun-10 09:45N 46°50' W 071°09'8114.0
2018-Jun-10 03:56N 46°12' W 072°53'715.0
2018-Jun-10 03:28N 46°06' W 072°59'613.2
2018-Jun-10 03:00N 46°03' W 073°07'713.3
2018-Jun-10 02:30N 45°58' W 073°12'714.0
2018-Jun-10 02:00N 45°51' W 073°16'714.1
2018-Jun-10 01:31N 45°46' W 073°23'713.9
2018-Jun-10 01:00N 45°40' W 073°28'  

Dump ship's entire track history